sensor_id;sensor_type;location;lat;lon;timestamp;pressure;altitude;pressure_sealevel;temperature;humidity
60019;BME280;45870;42.528;26.740;2023-03-04T00:02:21;99839.59;;;15.02;42.35
60019;BME280;45870;42.528;26.740;2023-03-04T00:04:47;99838.31;;;14.78;43.13
60019;BME280;45870;42.528;26.740;2023-03-04T00:07:13;99842.66;;;14.79;43.08
60019;BME280;45870;42.528;26.740;2023-03-04T00:09:42;99824.59;;;14.63;43.04
60019;BME280;45870;42.528;26.740;2023-03-04T00:12:08;99836.78;;;14.61;43.45
60019;BME280;45870;42.528;26.740;2023-03-04T00:14:34;99811.56;;;14.65;43.44
60019;BME280;45870;42.528;26.740;2023-03-04T00:16:59;99824.91;;;14.67;43.06
60019;BME280;45870;42.528;26.740;2023-03-04T00:19:27;99834.22;;;14.76;43.47
60019;BME280;45870;42.528;26.740;2023-03-04T00:21:53;99785.75;;;14.63;43.08
60019;BME280;45870;42.528;26.740;2023-03-04T00:24:19;99824.03;;;14.93;42.53
60019;BME280;45870;42.528;26.740;2023-03-04T00:26:44;99825.81;;;15.09;42.46
60019;BME280;45870;42.528;26.740;2023-03-04T00:29:10;99817.47;;;14.89;42.80
60019;BME280;45870;42.528;26.740;2023-03-04T00:31:36;99811.97;;;14.79;42.82
60019;BME280;45870;42.528;26.740;2023-03-04T00:34:02;99810.22;;;14.68;42.85
60019;BME280;45870;42.528;26.740;2023-03-04T00:36:28;99801.53;;;14.39;43.27
60019;BME280;45870;42.528;26.740;2023-03-04T00:38:54;99799.38;;;14.41;42.87
60019;BME280;45870;42.528;26.740;2023-03-04T00:41:19;99801.16;;;14.09;43.36
60019;BME280;45870;42.528;26.740;2023-03-04T00:43:45;99798.03;;;13.95;43.65
60019;BME280;45870;42.528;26.740;2023-03-04T00:46:10;99793.53;;;13.84;44.14
60019;BME280;45870;42.528;26.740;2023-03-04T00:48:36;99790.13;;;13.93;44.17
60019;BME280;45870;42.528;26.740;2023-03-04T00:51:03;99778.06;;;14.06;43.85
60019;BME280;45870;42.528;26.740;2023-03-04T00:53:29;99785.16;;;14.07;43.87
60019;BME280;45870;42.528;26.740;2023-03-04T00:55:54;99724.91;;;13.62;44.02
60019;BME280;45870;42.528;26.740;2023-03-04T00:58:20;99777.44;;;13.99;43.51
60019;BME280;45870;42.528;26.740;2023-03-04T01:00:46;99753.94;;;13.61;44.05
60019;BME280;45870;42.528;26.740;2023-03-04T01:03:12;99779.16;;;13.62;43.95
60019;BME280;45870;42.528;26.740;2023-03-04T01:05:37;99780.63;;;13.31;44.32
60019;BME280;45870;42.528;26.740;2023-03-04T01:08:03;99785.03;;;13.15;44.58
60019;BME280;45870;42.528;26.740;2023-03-04T01:10:29;99780.72;;;13.02;44.36
60019;BME280;45870;42.528;26.740;2023-03-04T01:12:55;99784.44;;;12.96;44.57
60019;BME280;45870;42.528;26.740;2023-03-04T01:15:21;99762.03;;;12.68;44.40
60019;BME280;45870;42.528;26.740;2023-03-04T01:17:47;99790.59;;;12.75;44.97
60019;BME280;45870;42.528;26.740;2023-03-04T01:20:13;99787.81;;;12.87;44.42
60019;BME280;45870;42.528;26.740;2023-03-04T01:22:38;99794.78;;;12.99;44.44
60019;BME280;45870;42.528;26.740;2023-03-04T01:25:05;99793.44;;;13.02;44.83
60019;BME280;45870;42.528;26.740;2023-03-04T01:27:31;99797.00;;;12.86;45.12
60019;BME280;45870;42.528;26.740;2023-03-04T01:29:56;99795.44;;;12.90;45.34
60019;BME280;45870;42.528;26.740;2023-03-04T01:32:24;99798.81;;;12.80;45.25
60019;BME280;45870;42.528;26.740;2023-03-04T01:34:50;99788.16;;;12.45;45.85
60019;BME280;45870;42.528;26.740;2023-03-04T01:37:15;99787.72;;;12.65;45.76
60019;BME280;45870;42.528;26.740;2023-03-04T01:39:41;99765.69;;;12.95;44.72
60019;BME280;45870;42.528;26.740;2023-03-04T01:42:17;99793.53;;;13.24;44.61
60019;BME280;45870;42.528;26.740;2023-03-04T01:44:44;99791.16;;;13.27;44.84
60019;BME280;45870;42.528;26.740;2023-03-04T01:47:10;99800.34;;;13.43;44.72
60019;BME280;45870;42.528;26.740;2023-03-04T01:49:36;99800.28;;;13.21;44.99
60019;BME280;45870;42.528;26.740;2023-03-04T01:52:02;99806.25;;;13.40;44.94
60019;BME280;45870;42.528;26.740;2023-03-04T01:54:27;99793.94;;;13.32;44.47
60019;BME280;45870;42.528;26.740;2023-03-04T01:56:54;99817.22;;;13.12;44.75
60019;BME280;45870;42.528;26.740;2023-03-04T01:59:24;99758.66;;;12.61;46.05
60019;BME280;45870;42.528;26.740;2023-03-04T02:01:55;99808.97;;;13.07;45.80
60019;BME280;45870;42.528;26.740;2023-03-04T02:04:25;99810.78;;;13.34;45.45
60019;BME280;45870;42.528;26.740;2023-03-04T02:06:51;99809.94;;;13.50;44.89
60019;BME280;45870;42.528;26.740;2023-03-04T02:09:17;99702.75;;;12.88;44.63
60019;BME280;45870;42.528;26.740;2023-03-04T02:11:44;99706.75;;;13.02;44.57
60019;BME280;45870;42.528;26.740;2023-03-04T02:14:11;99810.72;;;13.68;44.63
60019;BME280;45870;42.528;26.740;2023-03-04T02:16:38;99786.28;;;13.46;44.47
60019;BME280;45870;42.528;26.740;2023-03-04T02:19:06;99826.66;;;13.64;44.69
60019;BME280;45870;42.528;26.740;2023-03-04T02:21:36;99800.63;;;13.85;43.95
60019;BME280;45870;42.528;26.740;2023-03-04T02:27:04;99796.25;;;14.06;44.03
60019;BME280;45870;42.528;26.740;2023-03-04T02:29:29;99639.59;;;13.04;44.15
60019;BME280;45870;42.528;26.740;2023-03-04T02:31:56;99800.84;;;14.05;44.33
60019;BME280;45870;42.528;26.740;2023-03-04T02:34:29;99710.66;;;13.28;45.33
60019;BME280;45870;42.528;26.740;2023-03-04T02:36:56;99798.31;;;13.55;46.54
60019;BME280;45870;42.528;26.740;2023-03-04T02:39:32;99803.56;;;13.62;46.66
60019;BME280;45870;42.528;26.740;2023-03-04T02:41:59;99803.47;;;14.22;45.14
60019;BME280;45870;42.528;26.740;2023-03-04T02:44:27;99765.31;;;12.86;48.54
60019;BME280;45870;42.528;26.740;2023-03-04T02:46:54;99704.84;;;12.31;48.64
60019;BME280;45870;42.528;26.740;2023-03-04T02:49:22;99797.94;;;13.46;47.56
60019;BME280;45870;42.528;26.740;2023-03-04T02:51:53;99775.06;;;14.29;45.01
60019;BME280;45870;42.528;26.740;2023-03-04T02:54:23;99809.84;;;14.86;43.98
60019;BME280;45870;42.528;26.740;2023-03-04T02:56:51;99808.25;;;14.90;44.06
60019;BME280;45870;42.528;26.740;2023-03-04T02:59:18;99809.28;;;14.84;44.21
60019;BME280;45870;42.528;26.740;2023-03-04T03:01:44;99798.72;;;14.87;44.06
60019;BME280;45870;42.528;26.740;2023-03-04T03:04:10;99809.09;;;14.95;43.82
60019;BME280;45870;42.528;26.740;2023-03-04T03:06:37;99801.22;;;14.94;43.76
60019;BME280;45870;42.528;26.740;2023-03-04T03:09:03;99693.59;;;14.29;43.58
60019;BME280;45870;42.528;26.740;2023-03-04T03:11:29;99797.91;;;14.87;43.60
60019;BME280;45870;42.528;26.740;2023-03-04T03:13:54;99800.25;;;14.78;43.85
60019;BME280;45870;42.528;26.740;2023-03-04T03:16:20;99800.53;;;14.77;43.91
60019;BME280;45870;42.528;26.740;2023-03-04T03:18:46;99750.00;;;13.95;44.92
60019;BME280;45870;42.528;26.740;2023-03-04T03:21:11;99793.41;;;13.74;46.40
60019;BME280;45870;42.528;26.740;2023-03-04T03:23:37;99805.16;;;14.01;45.63
60019;BME280;45870;42.528;26.740;2023-03-04T03:26:04;99799.06;;;14.64;44.21
60019;BME280;45870;42.528;26.740;2023-03-04T03:28:29;99798.28;;;14.69;44.22
60019;BME280;45870;42.528;26.740;2023-03-04T03:30:55;99789.72;;;14.28;44.66
60019;BME280;45870;42.528;26.740;2023-03-04T03:33:21;99772.66;;;12.24;49.57
60019;BME280;45870;42.528;26.740;2023-03-04T03:35:47;99796.75;;;12.26;49.86
60019;BME280;45870;42.528;26.740;2023-03-04T03:38:13;99797.09;;;11.38;52.49
60019;BME280;45870;42.528;26.740;2023-03-04T03:40:38;99795.94;;;11.11;53.59
60019;BME280;45870;42.528;26.740;2023-03-04T03:43:04;99799.03;;;11.54;51.63
60019;BME280;45870;42.528;26.740;2023-03-04T03:45:30;99785.91;;;12.71;48.92
60019;BME280;45870;42.528;26.740;2023-03-04T03:47:55;99751.34;;;12.94;47.11
60019;BME280;45870;42.528;26.740;2023-03-04T03:50:21;99776.13;;;13.80;45.77
60019;BME280;45870;42.528;26.740;2023-03-04T03:52:47;99807.41;;;14.09;45.07
60019;BME280;45870;42.528;26.740;2023-03-04T03:55:13;99778.31;;;13.83;45.05
60019;BME280;45870;42.528;26.740;2023-03-04T03:57:38;99805.56;;;13.11;46.91
60019;BME280;45870;42.528;26.740;2023-03-04T04:00:09;99793.50;;;13.79;45.43
60019;BME280;45870;42.528;26.740;2023-03-04T04:02:35;99822.25;;;12.91;48.14
60019;BME280;45870;42.528;26.740;2023-03-04T04:05:00;99825.75;;;13.37;46.92
60019;BME280;45870;42.528;26.740;2023-03-04T04:07:26;99773.06;;;13.71;45.14
60019;BME280;45870;42.528;26.740;2023-03-04T04:09:52;99834.00;;;14.07;44.89
60019;BME280;45870;42.528;26.740;2023-03-04T04:12:18;99830.16;;;14.03;44.89
60019;BME280;45870;42.528;26.740;2023-03-04T04:14:44;99826.53;;;13.97;45.09
60019;BME280;45870;42.528;26.740;2023-03-04T04:17:10;99830.16;;;14.03;44.83
60019;BME280;45870;42.528;26.740;2023-03-04T04:19:38;99837.66;;;13.96;44.50
60019;BME280;45870;42.528;26.740;2023-03-04T04:22:06;99801.75;;;13.89;44.80
60019;BME280;45870;42.528;26.740;2023-03-04T04:24:33;99816.38;;;13.88;44.55
60019;BME280;45870;42.528;26.740;2023-03-04T04:26:58;99834.50;;;14.04;44.86
60019;BME280;45870;42.528;26.740;2023-03-04T04:29:24;99803.22;;;13.96;44.48
60019;BME280;45870;42.528;26.740;2023-03-04T04:31:50;99830.81;;;14.15;44.45
60019;BME280;45870;42.528;26.740;2023-03-04T04:34:16;99834.63;;;14.14;44.70
60019;BME280;45870;42.528;26.740;2023-03-04T04:36:41;99827.59;;;14.18;44.75
60019;BME280;45870;42.528;26.740;2023-03-04T04:39:07;99824.44;;;14.26;45.03
60019;BME280;45870;42.528;26.740;2023-03-04T04:41:38;99823.31;;;14.22;44.74
60019;BME280;45870;42.528;26.740;2023-03-04T04:44:05;99824.19;;;14.28;44.80
60019;BME280;45870;42.528;26.740;2023-03-04T04:46:31;99824.22;;;14.33;44.64
60019;BME280;45870;42.528;26.740;2023-03-04T04:48:57;99820.16;;;14.30;44.29
60019;BME280;45870;42.528;26.740;2023-03-04T04:51:22;99828.41;;;14.19;44.71
60019;BME280;45870;42.528;26.740;2023-03-04T04:53:48;99758.16;;;13.74;44.65
60019;BME280;45870;42.528;26.740;2023-03-04T04:56:16;99826.06;;;13.62;45.87
60019;BME280;45870;42.528;26.740;2023-03-04T04:58:43;99831.03;;;13.48;46.56
60019;BME280;45870;42.528;26.740;2023-03-04T05:01:08;99829.47;;;11.84;51.07
60019;BME280;45870;42.528;26.740;2023-03-04T05:03:35;99829.63;;;11.43;52.63
60019;BME280;45870;42.528;26.740;2023-03-04T05:06:02;99825.50;;;11.64;51.98
60019;BME280;45870;42.528;26.740;2023-03-04T05:08:28;99829.50;;;11.03;54.16
60019;BME280;45870;42.528;26.740;2023-03-04T05:10:54;99827.75;;;10.97;54.77
60019;BME280;45870;42.528;26.740;2023-03-04T05:13:20;99820.34;;;11.04;54.48
60019;BME280;45870;42.528;26.740;2023-03-04T05:15:46;99833.47;;;11.70;52.41
60019;BME280;45870;42.528;26.740;2023-03-04T05:18:12;99738.63;;;11.60;51.85
60019;BME280;45870;42.528;26.740;2023-03-04T05:20:38;99829.28;;;11.39;53.57
60019;BME280;45870;42.528;26.740;2023-03-04T05:23:04;99832.91;;;10.98;55.76
60019;BME280;45870;42.528;26.740;2023-03-04T05:25:29;99835.84;;;10.97;55.11
60019;BME280;45870;42.528;26.740;2023-03-04T05:27:55;99839.59;;;11.77;53.75
60019;BME280;45870;42.528;26.740;2023-03-04T05:30:20;99837.72;;;11.20;54.18
60019;BME280;45870;42.528;26.740;2023-03-04T05:32:46;99838.63;;;12.35;51.44
60019;BME280;45870;42.528;26.740;2023-03-04T05:35:12;99794.13;;;13.26;47.85
60019;BME280;45870;42.528;26.740;2023-03-04T05:37:37;99843.03;;;13.52;48.30
60019;BME280;45870;42.528;26.740;2023-03-04T05:40:04;99836.97;;;14.06;46.29
60019;BME280;45870;42.528;26.740;2023-03-04T05:42:30;99845.63;;;13.26;48.89
60019;BME280;45870;42.528;26.740;2023-03-04T05:44:56;99837.03;;;12.67;49.98
60019;BME280;45870;42.528;26.740;2023-03-04T05:47:22;99839.56;;;12.74;50.43
60019;BME280;45870;42.528;26.740;2023-03-04T05:49:47;99833.38;;;13.40;49.49
60019;BME280;45870;42.528;26.740;2023-03-04T05:52:13;99837.53;;;13.47;48.79
60019;BME280;45870;42.528;26.740;2023-03-04T05:54:39;99840.50;;;14.28;46.80
60019;BME280;45870;42.528;26.740;2023-03-04T05:57:04;99843.44;;;13.83;47.42
60019;BME280;45870;42.528;26.740;2023-03-04T05:59:30;99850.13;;;15.63;44.00
60019;BME280;45870;42.528;26.740;2023-03-04T06:01:55;99851.09;;;15.46;43.61
60019;BME280;45870;42.528;26.740;2023-03-04T06:04:21;99719.47;;;13.62;45.91
60019;BME280;45870;42.528;26.740;2023-03-04T06:06:47;99835.25;;;14.21;46.63
60019;BME280;45870;42.528;26.740;2023-03-04T06:09:13;99852.88;;;14.67;45.62
60019;BME280;45870;42.528;26.740;2023-03-04T06:11:39;99680.88;;;12.73;47.91
60019;BME280;45870;42.528;26.740;2023-03-04T06:14:04;99853.59;;;15.16;45.47
60019;BME280;45870;42.528;26.740;2023-03-04T06:16:30;99856.59;;;15.52;43.89
60019;BME280;45870;42.528;26.740;2023-03-04T06:18:56;99855.94;;;16.38;42.32
60019;BME280;45870;42.528;26.740;2023-03-04T06:21:23;99811.03;;;16.71;40.91
60019;BME280;45870;42.528;26.740;2023-03-04T06:23:49;99800.44;;;17.20;39.58
60019;BME280;45870;42.528;26.740;2023-03-04T06:26:15;99842.97;;;17.16;40.08
60019;BME280;45870;42.528;26.740;2023-03-04T06:28:42;99860.41;;;17.45;40.13
60019;BME280;45870;42.528;26.740;2023-03-04T06:31:09;99863.13;;;16.90;41.60
60019;BME280;45870;42.528;26.740;2023-03-04T06:33:35;99866.38;;;16.67;40.61
60019;BME280;45870;42.528;26.740;2023-03-04T06:36:01;99831.72;;;14.42;45.80
60019;BME280;45870;42.528;26.740;2023-03-04T06:38:27;99870.34;;;15.72;43.63
60019;BME280;45870;42.528;26.740;2023-03-04T06:40:52;99785.06;;;16.33;42.01
60019;BME280;45870;42.528;26.740;2023-03-04T06:43:19;99868.91;;;14.95;44.77
60019;BME280;45870;42.528;26.740;2023-03-04T06:45:44;99848.69;;;14.11;47.25
60019;BME280;45870;42.528;26.740;2023-03-04T06:48:11;99857.28;;;12.65;51.19
60019;BME280;45870;42.528;26.740;2023-03-04T06:50:39;99862.47;;;13.28;50.20
60019;BME280;45870;42.528;26.740;2023-03-04T06:53:05;99865.91;;;14.65;47.14
60019;BME280;45870;42.528;26.740;2023-03-04T06:55:30;99843.78;;;15.15;45.39
60019;BME280;45870;42.528;26.740;2023-03-04T06:57:56;99865.19;;;16.32;43.04
60019;BME280;45870;42.528;26.740;2023-03-04T07:00:22;99855.78;;;15.51;44.78
60019;BME280;45870;42.528;26.740;2023-03-04T07:02:49;99861.22;;;15.19;45.36
60019;BME280;45870;42.528;26.740;2023-03-04T07:05:14;99797.31;;;14.80;45.39
60019;BME280;45870;42.528;26.740;2023-03-04T07:07:41;99853.50;;;15.06;45.99
60019;BME280;45870;42.528;26.740;2023-03-04T07:10:07;99850.59;;;15.96;44.61
60019;BME280;45870;42.528;26.740;2023-03-04T07:12:34;99860.75;;;16.16;43.94
60019;BME280;45870;42.528;26.740;2023-03-04T07:15:00;99844.81;;;15.88;44.06
60019;BME280;45870;42.528;26.740;2023-03-04T07:17:26;99849.13;;;15.37;44.99
60019;BME280;45870;42.528;26.740;2023-03-04T07:19:51;99806.34;;;15.27;45.00
60019;BME280;45870;42.528;26.740;2023-03-04T07:22:17;99823.03;;;15.83;43.80
60019;BME280;45870;42.528;26.740;2023-03-04T07:24:43;99855.50;;;15.99;43.28
60019;BME280;45870;42.528;26.740;2023-03-04T07:27:09;99863.59;;;16.46;42.94
60019;BME280;45870;42.528;26.740;2023-03-04T07:29:34;99805.59;;;15.00;46.41
60019;BME280;45870;42.528;26.740;2023-03-04T07:32:00;99757.91;;;13.54;48.14
60019;BME280;45870;42.528;26.740;2023-03-04T07:34:26;99835.16;;;14.60;46.57
60019;BME280;45870;42.528;26.740;2023-03-04T07:36:51;99845.25;;;15.65;43.48
60019;BME280;45870;42.528;26.740;2023-03-04T07:39:17;99831.53;;;14.27;47.30
60019;BME280;45870;42.528;26.740;2023-03-04T07:41:43;99794.41;;;15.28;44.85
60019;BME280;45870;42.528;26.740;2023-03-04T07:44:10;99849.53;;;14.60;46.89
60019;BME280;45870;42.528;26.740;2023-03-04T07:46:36;99861.22;;;15.19;45.67
60019;BME280;45870;42.528;26.740;2023-03-04T07:49:02;99857.69;;;15.56;45.00
60019;BME280;45870;42.528;26.740;2023-03-04T07:51:28;99865.09;;;15.28;46.19
60019;BME280;45870;42.528;26.740;2023-03-04T07:53:59;99864.09;;;14.76;46.05
60019;BME280;45870;42.528;26.740;2023-03-04T07:56:28;99801.91;;;14.79;46.63
60019;BME280;45870;42.528;26.740;2023-03-04T07:58:54;99860.25;;;14.01;48.55
60019;BME280;45870;42.528;26.740;2023-03-04T08:01:24;99855.78;;;16.08;43.47
60019;BME280;45870;42.528;26.740;2023-03-04T08:03:51;99871.53;;;14.85;46.02
60019;BME280;45870;42.528;26.740;2023-03-04T08:06:17;99873.69;;;15.47;44.59
60019;BME280;45870;42.528;26.740;2023-03-04T08:08:44;99852.78;;;15.16;45.37
60019;BME280;45870;42.528;26.740;2023-03-04T08:11:12;99715.69;;;15.59;42.39
60019;BME280;45870;42.528;26.740;2023-03-04T08:13:39;99800.94;;;15.32;44.58
60019;BME280;45870;42.528;26.740;2023-03-04T08:16:05;99847.53;;;15.88;44.47
60019;BME280;45870;42.528;26.740;2023-03-04T08:18:31;99827.19;;;16.01;43.67
60019;BME280;45870;42.528;26.740;2023-03-04T08:20:57;99846.59;;;16.14;43.48
60019;BME280;45870;42.528;26.740;2023-03-04T08:23:23;99845.31;;;15.01;45.83
60019;BME280;45870;42.528;26.740;2023-03-04T08:25:49;99846.47;;;15.10;45.66
60019;BME280;45870;42.528;26.740;2023-03-04T08:28:15;99846.06;;;16.22;43.28
60019;BME280;45870;42.528;26.740;2023-03-04T08:30:41;99853.91;;;15.25;45.07
60019;BME280;45870;42.528;26.740;2023-03-04T08:33:07;99839.19;;;15.16;44.93
60019;BME280;45870;42.528;26.740;2023-03-04T08:35:36;99841.19;;;15.30;44.90
60019;BME280;45870;42.528;26.740;2023-03-04T08:38:02;99845.69;;;17.26;41.37
60019;BME280;45870;42.528;26.740;2023-03-04T08:40:28;99838.44;;;16.29;43.10
60019;BME280;45870;42.528;26.740;2023-03-04T08:42:55;99791.16;;;17.11;40.11
60019;BME280;45870;42.528;26.740;2023-03-04T08:45:21;99787.78;;;15.51;42.67
60019;BME280;45870;42.528;26.740;2023-03-04T08:47:46;99821.97;;;16.66;41.63
60019;BME280;45870;42.528;26.740;2023-03-04T08:50:12;99831.81;;;16.00;42.83
60019;BME280;45870;42.528;26.740;2023-03-04T08:52:40;99809.56;;;16.18;43.58
60019;BME280;45870;42.528;26.740;2023-03-04T08:55:06;99825.69;;;16.35;43.21
60019;BME280;45870;42.528;26.740;2023-03-04T08:57:31;99819.78;;;16.83;41.88
60019;BME280;45870;42.528;26.740;2023-03-04T08:59:57;99817.66;;;15.98;42.60
60019;BME280;45870;42.528;26.740;2023-03-04T09:02:22;99813.22;;;17.25;40.82
60019;BME280;45870;42.528;26.740;2023-03-04T09:04:49;99791.88;;;14.80;45.52
60019;BME280;45870;42.528;26.740;2023-03-04T09:07:16;99818.78;;;16.12;43.58
60019;BME280;45870;42.528;26.740;2023-03-04T09:09:41;99809.38;;;17.61;40.00
60019;BME280;45870;42.528;26.740;2023-03-04T09:12:07;99809.16;;;18.17;38.66
60019;BME280;45870;42.528;26.740;2023-03-04T09:14:33;99810.38;;;18.44;38.84
60019;BME280;45870;42.528;26.740;2023-03-04T09:17:01;99804.75;;;16.61;41.97
60019;BME280;45870;42.528;26.740;2023-03-04T09:19:27;99804.56;;;15.95;42.80
60019;BME280;45870;42.528;26.740;2023-03-04T09:21:53;99799.34;;;18.11;39.72
60019;BME280;45870;42.528;26.740;2023-03-04T09:24:21;99797.16;;;16.78;41.83
60019;BME280;45870;42.528;26.740;2023-03-04T09:26:51;99798.41;;;16.25;41.71
60019;BME280;45870;42.528;26.740;2023-03-04T09:29:17;99799.81;;;17.54;41.46
60019;BME280;45870;42.528;26.740;2023-03-04T09:31:42;99805.47;;;19.14;37.40
60019;BME280;45870;42.528;26.740;2023-03-04T09:34:08;99804.50;;;17.33;41.13
60019;BME280;45870;42.528;26.740;2023-03-04T09:36:34;99804.78;;;15.78;44.74
60019;BME280;45870;42.528;26.740;2023-03-04T09:39:03;99790.06;;;16.97;41.31
60019;BME280;45870;42.528;26.740;2023-03-04T09:41:37;99787.69;;;15.98;43.77
60019;BME280;45870;42.528;26.740;2023-03-04T09:44:14;99774.22;;;17.29;41.02
60019;BME280;45870;42.528;26.740;2023-03-04T09:46:42;99771.53;;;17.98;40.73
60019;BME280;45870;42.528;26.740;2023-03-04T09:49:12;99770.97;;;16.97;41.77
60019;BME280;45870;42.528;26.740;2023-03-04T09:54:39;99768.28;;;16.77;42.37
60019;BME280;45870;42.528;26.740;2023-03-04T10:03:07;99773.09;;;17.35;41.07
60019;BME280;45870;42.528;26.740;2023-03-04T10:05:43;99758.97;;;16.53;43.55
60019;BME280;45870;42.528;26.740;2023-03-04T10:11:10;99708.28;;;16.52;42.63
60019;BME280;45870;42.528;26.740;2023-03-04T10:16:44;99751.59;;;17.19;42.39
60019;BME280;45870;42.528;26.740;2023-03-04T10:21:42;99749.47;;;18.78;39.31
60019;BME280;45870;42.528;26.740;2023-03-04T10:24:12;99752.66;;;17.28;41.50
60019;BME280;45870;42.528;26.740;2023-03-04T10:26:41;99601.38;;;17.00;40.52
60019;BME280;45870;42.528;26.740;2023-03-04T10:29:17;99734.28;;;17.69;40.85
60019;BME280;45870;42.528;26.740;2023-03-04T10:31:43;99732.25;;;17.00;42.11
60019;BME280;45870;42.528;26.740;2023-03-04T10:34:12;99733.38;;;15.56;45.70
60019;BME280;45870;42.528;26.740;2023-03-04T10:36:58;99731.97;;;16.36;44.60
60019;BME280;45870;42.528;26.740;2023-03-04T10:44:50;99718.09;;;18.99;39.17
60019;BME280;45870;42.528;26.740;2023-03-04T10:47:16;99646.88;;;17.15;41.98
60019;BME280;45870;42.528;26.740;2023-03-04T10:49:55;99703.50;;;19.32;38.86
60019;BME280;45870;42.528;26.740;2023-03-04T10:52:31;99697.16;;;17.68;42.31
60019;BME280;45870;42.528;26.740;2023-03-04T10:55:03;99633.19;;;17.25;41.48
60019;BME280;45870;42.528;26.740;2023-03-04T10:57:36;99680.44;;;17.00;43.25
60019;BME280;45870;42.528;26.740;2023-03-04T11:00:26;99673.22;;;18.37;39.01
60019;BME280;45870;42.528;26.740;2023-03-04T11:03:22;99644.66;;;17.86;40.56
60019;BME280;45870;42.528;26.740;2023-03-04T11:05:50;99656.78;;;16.80;43.22
60019;BME280;45870;42.528;26.740;2023-03-04T11:08:21;99656.09;;;17.88;40.94
60019;BME280;45870;42.528;26.740;2023-03-04T11:10:49;99655.31;;;18.21;40.37
60019;BME280;45870;42.528;26.740;2023-03-04T11:13:19;99658.03;;;17.18;41.63
60019;BME280;45870;42.528;26.740;2023-03-04T11:18:14;99648.88;;;18.07;40.42
60019;BME280;45870;42.528;26.740;2023-03-04T11:20:43;99653.88;;;17.41;41.99
60019;BME280;45870;42.528;26.740;2023-03-04T11:23:15;99645.72;;;18.24;41.56
60019;BME280;45870;42.528;26.740;2023-03-04T11:25:45;99653.78;;;17.61;42.43
60019;BME280;45870;42.528;26.740;2023-03-04T11:28:25;99641.16;;;17.75;42.02
60019;BME280;45870;42.528;26.740;2023-03-04T11:31:02;99644.50;;;18.06;41.51
60019;BME280;45870;42.528;26.740;2023-03-04T11:39:46;99645.09;;;18.94;39.14
60019;BME280;45870;42.528;26.740;2023-03-04T11:42:36;99639.94;;;17.96;41.73
60019;BME280;45870;42.528;26.740;2023-03-04T11:45:14;99640.16;;;18.39;40.27
60019;BME280;45870;42.528;26.740;2023-03-04T11:51:00;99627.63;;;17.50;43.04
60019;BME280;45870;42.528;26.740;2023-03-04T11:53:35;99640.09;;;18.78;39.40
60019;BME280;45870;42.528;26.740;2023-03-04T12:04:32;99628.53;;;19.10;40.59
60019;BME280;45870;42.528;26.740;2023-03-04T12:07:18;99622.97;;;18.00;42.08
60019;BME280;45870;42.528;26.740;2023-03-04T12:15:43;99620.38;;;17.25;43.14
60019;BME280;45870;42.528;26.740;2023-03-04T12:27:23;99604.59;;;18.73;41.07
60019;BME280;45870;42.528;26.740;2023-03-04T12:30:05;99591.88;;;19.29;38.50
60019;BME280;45870;42.528;26.740;2023-03-04T12:32:49;99595.09;;;18.36;40.07
60019;BME280;45870;42.528;26.740;2023-03-04T12:35:40;99591.66;;;18.55;39.34
60019;BME280;45870;42.528;26.740;2023-03-04T12:51:45;99587.88;;;20.80;36.06
60019;BME280;45870;42.528;26.740;2023-03-04T13:05:14;99566.94;;;18.07;41.57
60019;BME280;45870;42.528;26.740;2023-03-04T13:08:12;99568.03;;;18.06;41.62
60019;BME280;45870;42.528;26.740;2023-03-04T13:10:41;99556.44;;;19.80;38.10
60019;BME280;45870;42.528;26.740;2023-03-04T13:13:34;99351.41;;;18.11;38.58
60019;BME280;45870;42.528;26.740;2023-03-04T13:16:02;99560.06;;;18.10;40.32
60019;BME280;45870;42.528;26.740;2023-03-04T13:18:33;99561.91;;;18.48;40.67
60019;BME280;45870;42.528;26.740;2023-03-04T13:21:19;99350.34;;;16.37;41.68
60019;BME280;45870;42.528;26.740;2023-03-04T13:23:46;99560.59;;;18.93;39.45
60019;BME280;45870;42.528;26.740;2023-03-04T13:26:31;99545.41;;;20.77;35.83
60019;BME280;45870;42.528;26.740;2023-03-04T13:31:57;99532.22;;;19.87;37.82
60019;BME280;45870;42.528;26.740;2023-03-04T13:34:47;99530.09;;;20.30;36.58
60019;BME280;45870;42.528;26.740;2023-03-04T13:37:34;99515.78;;;18.13;39.25
60019;BME280;45870;42.528;26.740;2023-03-04T13:40:32;99518.66;;;19.40;37.54
60019;BME280;45870;42.528;26.740;2023-03-04T13:43:20;99523.78;;;19.84;37.34
60019;BME280;45870;42.528;26.740;2023-03-04T13:45:48;99508.34;;;19.56;36.28
60019;BME280;45870;42.528;26.740;2023-03-04T13:48:31;99513.59;;;20.63;35.19
60019;BME280;45870;42.528;26.740;2023-03-04T13:50:57;99512.06;;;20.98;34.50
60019;BME280;45870;42.528;26.740;2023-03-04T13:53:37;99501.72;;;19.19;38.03
60019;BME280;45870;42.528;26.740;2023-03-04T14:04:26;99494.16;;;19.11;38.42
60019;BME280;45870;42.528;26.740;2023-03-04T14:06:54;99486.09;;;20.54;36.42
60019;BME280;45870;42.528;26.740;2023-03-04T14:09:28;99484.44;;;19.93;37.34
60019;BME280;45870;42.528;26.740;2023-03-04T14:11:57;99487.22;;;19.75;36.65
60019;BME280;45870;42.528;26.740;2023-03-04T14:14:26;99394.66;;;18.70;38.17
60019;BME280;45870;42.528;26.740;2023-03-04T14:16:59;99479.34;;;21.73;33.24
60019;BME280;45870;42.528;26.740;2023-03-04T14:19:28;99478.84;;;19.53;37.62
60019;BME280;45870;42.528;26.740;2023-03-04T14:21:55;99476.69;;;19.82;37.64
60019;BME280;45870;42.528;26.740;2023-03-04T14:24:22;99471.91;;;18.04;40.53
60019;BME280;45870;42.528;26.740;2023-03-04T14:26:49;99472.72;;;19.18;38.87
60019;BME280;45870;42.528;26.740;2023-03-04T14:29:27;99466.78;;;17.69;41.99
60019;BME280;45870;42.528;26.740;2023-03-04T14:31:54;99466.00;;;18.68;39.53
60019;BME280;45870;42.528;26.740;2023-03-04T14:34:40;99460.97;;;19.36;38.39